Portada
METAR-TAF:

METAR-TAF

Aeroports :

Cobar, Austràlia

latitud: 31-32-18S, longitud: 145-47-36E, altitud: 221 m

Observació

L'informe es va fer fa 17 minuts, a les 12:00 UTC
Vent 6 kt del Sud-Est
Temperatura 31°C
Humitat 24%
Pressió 1009 hPa
Visibilitat 10 km o més

METAR: YCBA 181200Z AUTO 13006KT 9999 // NCD 31/08 Q1009

Hora: 23:17 (12:17 UTC)


TAF: manca

Observacions i pronòstics meteorològics de més de 4000 aeroports (METAR i TAF).

Les estacions disponibles són els punts grocs i vermells al mapa.

Posi el ratolí al punt desitjat per veure el nom de l'estació.

Feu clic per veure les observacions i els pronòstics meteorològics.

Per canviar el mapa: feu clic els botons verds amb una creu de color negre per apropar; al botó verd amb un guió per allunyar la imatge; o en les fletxes verdes per a mapes adjacents.


METAR-TAF: